createdAt,value
2018-10-07T00:01:48.171Z,13.88
2018-10-07T00:06:48.637Z,14.08
2018-10-07T00:11:47.907Z,13.88
2018-10-07T00:16:48.174Z,13.98
2018-10-07T00:21:48.644Z,13.78
2018-10-07T00:26:48.286Z,13.78
2018-10-07T00:31:48.659Z,13.98
2018-10-07T00:36:47.988Z,14.48
2018-10-07T00:41:48.212Z,13.98
2018-10-07T00:46:48.502Z,13.78
2018-10-07T00:51:47.950Z,14.18
2018-10-07T00:56:47.570Z,13.98
2018-10-07T01:01:47.839Z,14.48
2018-10-07T01:06:48.418Z,14.78
2018-10-07T01:11:47.579Z,14.38
2018-10-07T01:16:47.880Z,13.98
2018-10-07T01:21:48.365Z,14.28
2018-10-07T01:26:47.937Z,14.28
2018-10-07T01:31:48.218Z,13.98
2018-10-07T01:36:47.720Z,14.38
2018-10-07T01:41:47.946Z,14.28
2018-10-07T01:46:48.214Z,14.08
2018-10-07T01:51:47.725Z,14.28
2018-10-07T01:56:48.296Z,14.38
2018-10-07T02:01:47.634Z,14.48
2018-10-07T02:06:48.139Z,14.58
2018-10-07T02:11:48.353Z,14.58
2018-10-07T02:16:47.659Z,14.48
2018-10-07T02:21:48.136Z,14.58
2018-10-07T02:26:47.738Z,14.78
2018-10-07T02:31:48.053Z,15.18
2018-10-07T02:36:48.506Z,14.58
2018-10-07T02:41:47.704Z,14.48
2018-10-07T02:46:48.008Z,14.58
2018-10-07T02:51:48.447Z,14.48
2018-10-07T02:56:48.075Z,14.58
2018-10-07T03:01:48.349Z,14.38
2018-10-07T03:06:47.868Z,14.48
2018-10-07T03:11:48.066Z,14.48
2018-10-07T03:16:48.326Z,14.48
2018-10-07T03:21:47.819Z,14.38
2018-10-07T03:26:48.428Z,14.38
2018-10-07T03:31:47.752Z,14.38
2018-10-07T03:36:48.162Z,14.48
2018-10-07T03:41:48.386Z,14.48
2018-10-07T03:46:47.723Z,14.48
2018-10-07T03:51:48.186Z,14.18
2018-10-07T03:56:47.792Z,13.88
2018-10-07T04:01:48.119Z,13.88
2018-10-07T04:06:48.534Z,13.68
2018-10-07T04:11:47.764Z,13.58
2018-10-07T04:16:48.110Z,13.48
2018-10-07T04:21:48.506Z,13.28
2018-10-07T04:26:48.137Z,13.28
2018-10-07T04:31:48.394Z,13.18
2018-10-07T04:36:47.874Z,13.08
2018-10-07T04:41:48.061Z,12.98
2018-10-07T04:46:48.354Z,12.98
2018-10-07T04:51:47.846Z,12.68
2018-10-07T04:56:49.853Z,12.68
2018-10-07T05:01:47.768Z,12.28
2018-10-07T05:06:48.259Z,12.28
2018-10-07T05:11:47.762Z,12.18
2018-10-07T05:16:48.088Z,12.08
2018-10-07T05:21:48.513Z,11.98
2018-10-07T05:26:48.068Z,11.88
2018-10-07T05:31:48.374Z,11.98
2018-10-07T05:36:48.138Z,11.68
2018-10-07T05:41:48.336Z,11.78
2018-10-07T05:46:47.703Z,12.08
2018-10-07T05:51:48.095Z,11.98
2018-10-07T05:56:47.699Z,11.68
2018-10-07T06:01:48.403Z,11.68
2018-10-07T06:06:48.471Z,11.58
2018-10-07T06:11:47.703Z,11.68
2018-10-07T06:16:48.395Z,11.48
2018-10-07T06:21:48.441Z,11.48
2018-10-07T06:26:48.052Z,11.38
2018-10-07T06:31:48.341Z,11.08
2018-10-07T06:36:47.819Z,11.38
2018-10-07T06:41:48.002Z,11.18
2018-10-07T06:46:48.296Z,11.08
2018-10-07T06:51:47.784Z,11.08
2018-10-07T06:56:48.386Z,11.18
2018-10-07T07:01:47.723Z,11.18
2018-10-07T07:06:48.191Z,11.18
2018-10-07T07:11:48.443Z,10.98
2018-10-07T07:16:47.781Z,10.98
2018-10-07T07:21:48.204Z,11.18
2018-10-07T07:26:47.770Z,11.18
2018-10-07T07:31:48.078Z,11.28
2018-10-07T07:36:48.772Z,11.28
2018-10-07T07:41:47.761Z,11.18
2018-10-07T07:46:48.059Z,11.28
2018-10-07T07:51:48.495Z,11.28
2018-10-07T07:56:48.059Z,11.38
2018-10-07T08:01:48.349Z,11.28
2018-10-07T08:06:47.865Z,11.48
2018-10-07T08:11:48.061Z,11.68
2018-10-07T08:16:48.370Z,11.68
2018-10-07T08:21:47.858Z,11.68
2018-10-07T08:26:48.376Z,11.38
2018-10-07T08:31:47.751Z,11.48
2018-10-07T08:36:48.123Z,11.48
2018-10-07T08:41:48.391Z,11.42
2018-10-07T08:46:47.712Z,11.82
2018-10-07T08:51:48.132Z,11.88
2018-10-07T08:56:47.709Z,11.45
2018-10-07T09:01:48.022Z,11.93
2018-10-07T09:06:48.483Z,12.05
2018-10-07T09:11:47.706Z,11.92
2018-10-07T09:16:48.048Z,11.84
2018-10-07T09:21:48.480Z,12.31
2018-10-07T09:26:48.317Z,12.16
2018-10-07T09:31:48.332Z,12.29
2018-10-07T09:36:48.090Z,12.25
2018-10-07T09:41:48.056Z,12.21
2018-10-07T09:46:48.326Z,12.02
2018-10-07T09:51:47.825Z,12.01
2018-10-07T09:56:48.359Z,12.07
2018-10-07T10:01:47.710Z,12.60
2018-10-07T10:06:48.184Z,12.44
2018-10-07T10:11:48.376Z,12.42
2018-10-07T10:16:47.759Z,12.37
2018-10-07T10:21:48.204Z,12.64
2018-10-07T10:26:47.755Z,12.88
2018-10-07T10:31:48.150Z,13.12
2018-10-07T10:36:48.764Z,12.90
2018-10-07T10:41:47.823Z,13.15
2018-10-07T10:46:48.040Z,13.04
2018-10-07T10:51:48.504Z,13.28
2018-10-07T10:56:48.110Z,13.02
2018-10-07T11:01:48.358Z,13.02
2018-10-07T11:06:47.902Z,13.02
2018-10-07T11:11:48.096Z,12.80
2018-10-07T11:16:48.423Z,12.90
2018-10-07T11:21:47.864Z,13.23
2018-10-07T11:26:48.434Z,13.11
2018-10-07T11:31:47.787Z,13.41
2018-10-07T11:36:48.237Z,13.16
2018-10-07T11:41:48.400Z,13.34
2018-10-07T11:46:47.799Z,13.67
2018-10-07T11:51:48.161Z,13.70
2018-10-07T11:56:47.763Z,13.67
2018-10-07T12:01:48.093Z,13.55
2018-10-07T12:06:48.524Z,13.60
2018-10-07T12:11:47.806Z,14.03
2018-10-07T12:16:48.053Z,13.91
2018-10-07T12:21:48.456Z,13.35
2018-10-07T12:26:48.075Z,13.34
2018-10-07T12:31:48.335Z,13.91
2018-10-07T12:36:48.128Z,13.45
2018-10-07T12:41:48.033Z,14.03
2018-10-07T12:46:48.362Z,13.96
2018-10-07T12:51:47.849Z,13.88
2018-10-07T12:56:48.404Z,13.61
2018-10-07T13:01:47.803Z,14.40
2018-10-07T13:06:48.204Z,13.71
2018-10-07T13:11:48.387Z,13.76
2018-10-07T13:16:47.782Z,13.86
2018-10-07T13:21:48.158Z,14.25
2018-10-07T13:26:47.783Z,13.57
2018-10-07T13:31:48.064Z,14.07
2018-10-07T13:36:48.509Z,14.36
2018-10-07T13:41:47.742Z,14.17
2018-10-07T13:46:48.046Z,13.83
2018-10-07T13:51:48.475Z,13.87
2018-10-07T13:56:48.118Z,14.08
2018-10-07T14:01:48.356Z,13.48
2018-10-07T14:06:47.914Z,13.71
2018-10-07T14:11:48.201Z,13.38
2018-10-07T14:16:48.395Z,13.57
2018-10-07T14:21:47.927Z,13.88
2018-10-07T14:26:48.478Z,13.64
2018-10-07T14:31:47.843Z,13.87
2018-10-07T14:36:48.196Z,13.74
2018-10-07T14:41:48.475Z,13.58
2018-10-07T14:46:47.823Z,13.25
2018-10-07T14:51:48.208Z,13.77
2018-10-07T14:56:48.230Z,13.56
2018-10-07T15:01:48.194Z,13.66
2018-10-07T15:06:48.576Z,13.60
2018-10-07T15:11:47.816Z,13.48
2018-10-07T15:16:48.153Z,13.19
2018-10-07T15:21:48.561Z,13.76
2018-10-07T15:26:48.169Z,13.57
2018-10-07T15:31:48.404Z,13.22
2018-10-07T15:36:47.870Z,13.40
2018-10-07T15:41:48.046Z,12.83
2018-10-07T15:46:48.337Z,12.67
2018-10-07T15:51:47.833Z,12.53
2018-10-07T15:56:48.737Z,12.71
2018-10-07T16:01:47.722Z,12.39
2018-10-07T16:06:48.135Z,12.59
2018-10-07T16:11:48.377Z,12.35
2018-10-07T16:16:47.721Z,12.68
2018-10-07T16:21:48.132Z,12.22
2018-10-07T16:26:47.765Z,12.31
2018-10-07T16:31:48.052Z,12.22
2018-10-07T16:36:48.534Z,12.19
2018-10-07T16:41:47.757Z,12.09
2018-10-07T16:46:48.149Z,12.07
2018-10-07T16:51:48.489Z,12.17
2018-10-07T16:56:48.107Z,11.88
2018-10-07T17:01:48.408Z,11.88
2018-10-07T17:06:47.892Z,11.86
2018-10-07T17:11:48.097Z,11.86
2018-10-07T17:16:48.472Z,11.71
2018-10-07T17:21:47.884Z,11.63
2018-10-07T17:26:48.432Z,11.40
2018-10-07T17:31:47.868Z,11.25
2018-10-07T17:36:48.166Z,11.34
2018-10-07T17:41:48.407Z,11.22
2018-10-07T17:46:47.736Z,11.07
2018-10-07T17:51:48.188Z,10.81
2018-10-07T17:56:47.738Z,10.65
2018-10-07T18:01:48.452Z,10.63
2018-10-07T18:06:48.519Z,10.56
2018-10-07T18:11:47.708Z,10.46
2018-10-07T18:16:48.103Z,10.49
2018-10-07T18:21:48.675Z,10.52
2018-10-07T18:26:48.088Z,10.69
2018-10-07T18:31:48.428Z,10.55
2018-10-07T18:36:47.898Z,10.47
2018-10-07T18:41:48.338Z,10.27
2018-10-07T18:46:48.621Z,10.04
2018-10-07T18:51:47.865Z,10.25
2018-10-07T18:56:48.870Z,10.60
2018-10-07T19:01:47.949Z,10.87
2018-10-07T19:06:48.358Z,10.33
2018-10-07T19:11:48.835Z,10.51
2018-10-07T19:16:48.032Z,10.21
2018-10-07T19:21:48.192Z,10.33
2018-10-07T19:26:47.887Z,10.43
2018-10-07T19:31:48.696Z,10.29
2018-10-07T19:36:49.114Z,9.58
2018-10-07T19:41:47.986Z,9.47
2018-10-07T19:46:48.278Z,9.49
2018-10-07T19:51:48.521Z,10.37
2018-10-07T19:56:48.219Z,9.65
2018-10-07T20:01:48.445Z,9.39
2018-10-07T20:06:47.904Z,10.10
2018-10-07T20:11:48.108Z,10.37
2018-10-07T20:16:48.362Z,9.61
2018-10-07T20:21:47.799Z,9.29
2018-10-07T20:26:48.425Z,8.69
2018-10-07T20:31:47.755Z,8.49
2018-10-07T20:36:48.169Z,8.49
2018-10-07T20:41:48.396Z,9.89
2018-10-07T20:46:47.708Z,9.09
2018-10-07T20:51:48.165Z,8.49
2018-10-07T20:56:47.880Z,8.49
2018-10-07T21:01:48.081Z,8.39
2018-10-07T21:06:48.576Z,8.99
2018-10-07T21:11:47.797Z,9.54
2018-10-07T21:16:48.117Z,9.56
2018-10-07T21:21:48.542Z,8.89
2018-10-07T21:26:48.175Z,8.19
2018-10-07T21:31:48.467Z,7.89
2018-10-07T21:36:47.913Z,7.89
2018-10-07T21:41:48.848Z,8.09
2018-10-07T21:46:48.463Z,8.09
2018-10-07T21:51:47.870Z,8.09
2018-10-07T21:56:48.441Z,7.89
2018-10-07T22:01:47.787Z,7.59
2018-10-07T22:06:48.249Z,7.69
2018-10-07T22:11:48.458Z,7.49
2018-10-07T22:16:47.820Z,7.89
2018-10-07T22:21:48.189Z,7.89
2018-10-07T22:26:47.827Z,7.49
2018-10-07T22:31:48.174Z,7.39
2018-10-07T22:36:47.666Z,7.19
2018-10-07T22:41:47.796Z,7.19
2018-10-07T22:46:48.096Z,7.19
2018-10-07T22:51:47.575Z,6.99
2018-10-07T22:56:48.205Z,6.99
2018-10-07T23:01:47.531Z,7.29
2018-10-07T23:06:47.955Z,7.29
2018-10-07T23:11:48.145Z,7.29
2018-10-07T23:16:47.551Z,7.29
2018-10-07T23:21:47.926Z,7.19
2018-10-07T23:26:47.510Z,6.49
2018-10-07T23:31:47.892Z,6.59
2018-10-07T23:36:48.274Z,6.79
2018-10-07T23:41:47.605Z,6.49
2018-10-07T23:46:47.860Z,6.89
2018-10-07T23:51:48.753Z,6.69
2018-10-07T23:56:47.883Z,6.49
